createdAt,value
2023-05-01T00:00:02.570Z,2.2
2023-05-01T00:05:02.162Z,1.9
2023-05-01T00:10:00.621Z,1.5
2023-05-01T00:15:00.629Z,1.0
2023-05-01T00:20:00.605Z,2.3
2023-05-01T00:25:00.683Z,3.2
2023-05-01T00:30:00.559Z,2.2
2023-05-01T00:35:00.604Z,2.6
2023-05-01T00:40:00.598Z,1.7
2023-05-01T00:45:00.608Z,1.6
2023-05-01T00:50:00.590Z,0.6
2023-05-01T00:55:00.568Z,0.0
2023-05-01T01:00:00.611Z,1.4
2023-05-01T01:05:00.628Z,0.0
2023-05-01T01:10:00.582Z,0.0
2023-05-01T01:15:00.579Z,0.0
2023-05-01T01:20:00.677Z,0.0
2023-05-01T01:25:00.567Z,0.0
2023-05-01T01:30:00.579Z,0.0
2023-05-01T01:35:00.593Z,0.0
2023-05-01T01:40:00.579Z,0.0
2023-05-01T01:45:00.604Z,0.0
2023-05-01T01:50:00.563Z,0.0
2023-05-01T01:55:00.634Z,0.0
2023-05-01T02:00:00.599Z,0.0
2023-05-01T02:05:00.567Z,0.0
2023-05-01T02:10:00.578Z,0.0
2023-05-01T02:15:00.578Z,0.3
2023-05-01T02:20:00.593Z,0.0
2023-05-01T02:25:00.581Z,0.0
2023-05-01T02:30:00.620Z,0.0
2023-05-01T02:35:00.600Z,0.0
2023-05-01T02:40:00.592Z,0.0
2023-05-01T02:45:00.591Z,0.0
2023-05-01T02:50:00.575Z,0.0
2023-05-01T02:55:00.547Z,0.0
2023-05-01T03:00:00.615Z,0.0
2023-05-01T03:05:00.579Z,0.0
2023-05-01T03:10:00.597Z,0.0
2023-05-01T03:15:00.591Z,0.0
2023-05-01T03:20:00.605Z,0.0
2023-05-01T03:25:00.594Z,0.0
2023-05-01T03:30:00.688Z,0.0
2023-05-01T03:35:00.756Z,0.0
2023-05-01T03:40:00.563Z,0.0
2023-05-01T03:45:00.608Z,0.1
2023-05-01T03:50:00.566Z,0.2
2023-05-01T03:55:00.549Z,0.0
2023-05-01T04:00:00.598Z,0.0
2023-05-01T04:05:00.560Z,0.0
2023-05-01T04:10:00.570Z,0.0
2023-05-01T04:15:00.568Z,0.0
2023-05-01T04:20:00.629Z,0.0
2023-05-01T04:25:00.671Z,0.4
2023-05-01T04:30:01.054Z,1.1
2023-05-01T04:35:00.575Z,2.7
2023-05-01T04:40:00.621Z,0.9
2023-05-01T04:45:00.579Z,0.2
2023-05-01T04:50:00.601Z,0.0
2023-05-01T04:55:00.568Z,0.0
2023-05-01T05:00:00.890Z,0.0
2023-05-01T05:05:00.630Z,0.0
2023-05-01T05:10:00.643Z,0.0
2023-05-01T05:15:00.628Z,1.0
2023-05-01T05:20:00.573Z,0.6
2023-05-01T05:25:00.616Z,1.1
2023-05-01T05:30:00.637Z,0.0
2023-05-01T05:35:00.619Z,0.0
2023-05-01T05:40:00.578Z,0.6
2023-05-01T05:45:00.586Z,2.5
2023-05-01T05:50:00.603Z,2.5
2023-05-01T05:55:00.570Z,0.9
2023-05-01T06:00:00.606Z,2.0
2023-05-01T06:05:00.702Z,1.5
2023-05-01T06:10:00.601Z,1.4
2023-05-01T06:15:00.593Z,2.8
2023-05-01T06:20:00.599Z,0.9
2023-05-01T06:25:00.647Z,2.7
2023-05-01T06:30:00.579Z,1.1
2023-05-01T06:35:00.602Z,0.6
2023-05-01T06:40:00.570Z,3.5
2023-05-01T06:45:00.682Z,2.4
2023-05-01T06:50:04.529Z,3.0
2023-05-01T06:55:00.546Z,2.1
2023-05-01T07:00:00.552Z,1.5
2023-05-01T07:05:00.626Z,4.3
2023-05-01T07:10:00.895Z,5.4
2023-05-01T07:15:00.596Z,3.4
2023-05-01T07:20:00.604Z,1.9
2023-05-01T07:25:00.573Z,3.3
2023-05-01T07:30:00.585Z,0.9
2023-05-01T07:35:00.580Z,0.7
2023-05-01T07:40:00.607Z,7.1
2023-05-01T07:45:00.885Z,1.5
2023-05-01T07:50:00.650Z,1.3
2023-05-01T07:55:00.706Z,5.3
2023-05-01T08:00:00.655Z,4.2
2023-05-01T08:05:00.959Z,2.2
2023-05-01T08:10:01.182Z,4.5
2023-05-01T08:15:00.582Z,3.2
2023-05-01T08:20:00.590Z,4.1
2023-05-01T08:25:00.573Z,5.8
2023-05-01T08:30:00.595Z,3.8
2023-05-01T08:35:00.593Z,5.8
2023-05-01T08:40:00.597Z,10.1
2023-05-01T08:45:00.684Z,9.1
2023-05-01T08:50:00.630Z,6.9
2023-05-01T08:55:00.599Z,7.9
2023-05-01T09:00:00.662Z,3.4
2023-05-01T09:05:00.594Z,7.2
2023-05-01T09:10:00.614Z,4.6
2023-05-01T09:15:00.619Z,11.4
2023-05-01T09:20:00.641Z,4.6
2023-05-01T09:25:00.575Z,7.4
2023-05-01T09:30:00.565Z,3.2
2023-05-01T09:35:00.585Z,7.1
2023-05-01T09:40:00.581Z,4.6
2023-05-01T09:45:00.566Z,5.2
2023-05-01T09:50:00.594Z,2.5
2023-05-01T09:55:00.579Z,7.4
2023-05-01T10:00:00.580Z,5.9
2023-05-01T10:05:00.732Z,4.5
2023-05-01T10:10:02.390Z,7.3
2023-05-01T10:15:13.981Z,6.5
2023-05-01T10:20:00.568Z,7.0
2023-05-01T10:25:00.592Z,7.2
2023-05-01T10:30:00.587Z,8.8
2023-05-01T10:35:00.577Z,5.3
2023-05-01T10:40:00.608Z,8.3
2023-05-01T10:45:00.601Z,4.8
2023-05-01T10:50:00.578Z,7.8
2023-05-01T10:55:00.605Z,6.9
2023-05-01T11:00:00.591Z,5.9
2023-05-01T11:05:01.195Z,8.5
2023-05-01T11:10:00.667Z,4.5
2023-05-01T11:15:00.583Z,7.4
2023-05-01T11:20:00.625Z,6.0
2023-05-01T11:25:00.579Z,4.4
2023-05-01T11:30:00.594Z,2.9
2023-05-01T11:35:00.792Z,5.3
2023-05-01T11:40:00.603Z,8.2
2023-05-01T11:45:00.590Z,6.1
2023-05-01T11:50:00.613Z,3.7
2023-05-01T11:55:01.221Z,5.0
2023-05-01T12:00:00.673Z,7.2
2023-05-01T12:05:01.435Z,7.7
2023-05-01T12:10:00.613Z,4.6
2023-05-01T12:15:00.987Z,1.7
2023-05-01T12:20:00.599Z,8.9
2023-05-01T12:25:00.942Z,7.7
2023-05-01T12:30:00.639Z,7.4
2023-05-01T12:35:01.153Z,2.8
2023-05-01T12:40:00.587Z,4.7
2023-05-01T12:45:01.273Z,6.3
2023-05-01T12:50:01.012Z,4.7
2023-05-01T12:55:00.568Z,2.0
2023-05-01T13:00:01.324Z,6.8
2023-05-01T13:05:00.584Z,3.1
2023-05-01T13:10:01.563Z,5.8
2023-05-01T13:15:00.564Z,4.2
2023-05-01T13:20:01.842Z,2.7
2023-05-01T13:25:00.634Z,5.3
2023-05-01T13:30:01.621Z,3.6
2023-05-01T13:35:00.587Z,2.9
2023-05-01T13:40:01.354Z,2.7
2023-05-01T13:45:00.650Z,3.8
2023-05-01T13:50:01.568Z,6.9
2023-05-01T13:55:04.228Z,5.4
2023-05-01T14:00:00.596Z,6.1
2023-05-01T14:05:01.637Z,4.4
2023-05-01T14:10:00.578Z,1.5
2023-05-01T14:15:01.988Z,5.4
2023-05-01T14:20:00.567Z,0.7
2023-05-01T14:25:01.284Z,5.6
2023-05-01T14:30:00.592Z,3.0
2023-05-01T14:35:00.714Z,2.1
2023-05-01T14:40:00.562Z,4.5
2023-05-01T14:45:00.857Z,3.9
2023-05-01T14:50:00.631Z,3.4
2023-05-01T14:55:01.055Z,3.0
2023-05-01T15:00:00.735Z,2.1
2023-05-01T15:05:01.135Z,4.9
2023-05-01T15:10:00.864Z,5.5
2023-05-01T15:15:00.876Z,1.2
2023-05-01T15:20:00.750Z,3.0
2023-05-01T15:25:00.949Z,2.5
2023-05-01T15:30:00.754Z,1.9
2023-05-01T15:35:01.183Z,1.5
2023-05-01T15:40:00.793Z,3.1
2023-05-01T15:45:01.149Z,5.5
2023-05-01T15:50:01.590Z,1.1
2023-05-01T15:55:00.613Z,1.5
2023-05-01T16:00:01.571Z,3.2
2023-05-01T16:05:00.722Z,0.5
2023-05-01T16:10:01.688Z,0.6
2023-05-01T16:15:00.597Z,3.8
2023-05-01T16:20:01.752Z,1.2
2023-05-01T16:25:00.664Z,3.2
2023-05-01T16:30:01.382Z,4.5
2023-05-01T16:35:00.559Z,0.9
2023-05-01T16:40:02.021Z,0.3
2023-05-01T16:45:00.559Z,1.0
2023-05-01T16:50:01.637Z,3.2
2023-05-01T16:55:00.682Z,0.5
2023-05-01T17:00:01.713Z,1.7
2023-05-01T17:05:00.579Z,0.9
2023-05-01T17:10:01.403Z,2.8
2023-05-01T17:15:00.568Z,1.0
2023-05-01T17:20:01.256Z,0.3
2023-05-01T17:25:00.566Z,0.5
2023-05-01T17:30:01.349Z,0.5
2023-05-01T17:35:01.259Z,0.0
2023-05-01T17:40:01.424Z,0.0
2023-05-01T17:45:00.554Z,0.0
2023-05-01T17:50:01.511Z,0.0
2023-05-01T17:55:00.569Z,0.0
2023-05-01T18:00:01.462Z,0.0
2023-05-01T18:05:01.093Z,0.0
2023-05-01T18:10:01.766Z,0.0
2023-05-01T18:15:00.611Z,0.0
2023-05-01T18:20:01.351Z,0.0
2023-05-01T18:25:00.652Z,0.0
2023-05-01T18:30:01.370Z,0.0
2023-05-01T18:35:00.595Z,0.0
2023-05-01T18:40:01.420Z,0.0
2023-05-01T18:45:00.605Z,0.0
2023-05-01T18:50:01.202Z,0.0
2023-05-01T18:55:00.541Z,0.0
2023-05-01T19:00:01.366Z,0.0
2023-05-01T19:05:00.958Z,0.0
2023-05-01T19:10:01.348Z,0.0
2023-05-01T19:15:00.589Z,0.0
2023-05-01T19:20:01.424Z,0.0
2023-05-01T19:25:00.659Z,0.0
2023-05-01T19:30:01.793Z,0.0
2023-05-01T19:35:00.697Z,0.0
2023-05-01T19:40:01.363Z,0.0
2023-05-01T19:45:00.570Z,0.0
2023-05-01T19:50:01.523Z,0.0
2023-05-01T19:55:00.615Z,0.0
2023-05-01T20:00:01.637Z,0.0
2023-05-01T20:05:00.722Z,0.0
2023-05-01T20:10:01.302Z,0.0
2023-05-01T20:15:00.683Z,0.0
2023-05-01T20:20:01.188Z,0.0
2023-05-01T20:25:00.580Z,0.0
2023-05-01T20:30:01.383Z,0.0
2023-05-01T20:35:00.565Z,0.0
2023-05-01T20:40:01.274Z,0.0
2023-05-01T20:45:00.589Z,0.0
2023-05-01T20:50:02.592Z,0.0
2023-05-01T20:55:00.569Z,0.0
2023-05-01T21:00:01.939Z,0.0
2023-05-01T21:05:00.592Z,0.0
2023-05-01T21:10:01.133Z,0.0
2023-05-01T21:15:00.579Z,0.0
2023-05-01T21:20:01.375Z,0.0
2023-05-01T21:25:00.577Z,0.0
2023-05-01T21:30:01.397Z,0.0
2023-05-01T21:35:00.574Z,0.0
2023-05-01T21:40:01.392Z,0.0
2023-05-01T21:45:00.591Z,0.0
2023-05-01T21:50:01.267Z,0.1
2023-05-01T21:55:00.566Z,0.0
2023-05-01T22:00:01.201Z,0.0
2023-05-01T22:05:00.565Z,0.0
2023-05-01T22:10:01.423Z,0.0
2023-05-01T22:15:00.601Z,0.0
2023-05-01T22:20:01.407Z,0.0
2023-05-01T22:25:00.543Z,0.0
2023-05-01T22:30:01.746Z,0.0
2023-05-01T22:35:00.882Z,0.0
2023-05-01T22:40:01.283Z,0.0
2023-05-01T22:45:00.610Z,0.0
2023-05-01T22:50:01.699Z,0.0
2023-05-01T22:55:00.541Z,0.0
2023-05-01T23:00:01.589Z,1.0
2023-05-01T23:05:00.562Z,0.3
2023-05-01T23:10:01.297Z,0.1
2023-05-01T23:15:00.589Z,0.8
2023-05-01T23:20:01.374Z,1.5
2023-05-01T23:25:00.567Z,1.7
2023-05-01T23:30:01.375Z,1.5
2023-05-01T23:35:00.581Z,0.0
2023-05-01T23:40:01.397Z,0.2
2023-05-01T23:45:00.552Z,0.0
2023-05-01T23:50:01.521Z,0.5
2023-05-01T23:55:00.552Z,0.4
